createdAt,value
2022-08-03T00:00:17.146Z,101183.06
2022-08-03T00:02:42.813Z,101180.28
2022-08-03T00:05:08.593Z,101188.28
2022-08-03T00:07:34.450Z,101188.28
2022-08-03T00:10:00.174Z,101184.69
2022-08-03T00:12:25.821Z,101190.56
2022-08-03T00:14:51.450Z,101181.91
2022-08-03T00:17:17.084Z,101178.31
2022-08-03T00:19:42.709Z,101174.72
2022-08-03T00:22:08.324Z,101168.03
2022-08-03T00:24:35.395Z,101176.38
2022-08-03T00:27:01.150Z,101170.81
2022-08-03T00:29:26.878Z,101170.81
2022-08-03T00:31:59.456Z,101164.44
2022-08-03T00:34:30.973Z,101170.00
2022-08-03T00:37:11.597Z,101171.94
2022-08-03T00:39:37.270Z,101165.25
2022-08-03T00:42:04.092Z,101166.38
2022-08-03T00:44:30.342Z,101165.25
2022-08-03T00:46:55.989Z,101165.25
2022-08-03T00:49:21.883Z,101158.88
2022-08-03T00:51:47.664Z,101155.28
2022-08-03T00:54:14.473Z,101156.09
2022-08-03T00:56:40.459Z,101154.47
2022-08-03T00:59:25.596Z,101161.66
2022-08-03T01:01:52.974Z,101159.72
2022-08-03T01:04:18.604Z,101154.47
2022-08-03T01:07:03.006Z,101156.41
2022-08-03T01:09:52.091Z,101155.28
2022-08-03T01:12:38.730Z,101156.09
2022-08-03T01:15:12.845Z,101151.69
2022-08-03T01:17:55.927Z,101148.91
2022-08-03T01:20:23.837Z,101148.91
2022-08-03T01:25:39.529Z,101147.78
2022-08-03T01:28:44.970Z,101152.50
2022-08-03T01:31:11.186Z,101152.50
2022-08-03T01:33:40.545Z,101148.91
2022-08-03T01:36:15.593Z,101156.09
2022-08-03T01:38:44.102Z,101151.69
2022-08-03T01:41:14.896Z,101151.69
2022-08-03T01:43:55.147Z,101143.34
2022-08-03T01:46:30.772Z,101148.91
2022-08-03T01:48:57.226Z,101148.91
2022-08-03T01:51:22.900Z,101153.66
2022-08-03T01:53:50.341Z,101154.47
2022-08-03T01:56:17.488Z,101148.91
2022-08-03T01:58:43.749Z,101149.72
2022-08-03T02:01:09.556Z,101153.66
2022-08-03T02:03:37.948Z,101148.91
2022-08-03T02:07:02.735Z,101148.09
2022-08-03T02:09:12.008Z,101151.69
2022-08-03T02:11:37.848Z,101149.72
2022-08-03T02:14:04.896Z,101147.25
2022-08-03T02:16:32.958Z,101148.09
2022-08-03T02:19:00.623Z,101148.09
2022-08-03T02:21:57.272Z,101148.91
2022-08-03T02:24:13.705Z,101145.31
2022-08-03T02:26:40.569Z,101152.81
2022-08-03T02:29:11.868Z,101151.69
2022-08-03T02:31:38.238Z,101146.13
2022-08-03T02:34:11.452Z,101140.59
2022-08-03T02:36:38.733Z,101137.81
2022-08-03T02:39:05.569Z,101135.03
2022-08-03T02:41:50.467Z,101132.25
2022-08-03T02:44:18.052Z,101128.66
2022-08-03T02:46:45.830Z,101127.53
2022-08-03T02:49:40.624Z,101134.22
2022-08-03T02:51:59.225Z,101139.75
2022-08-03T02:54:25.815Z,101140.59
2022-08-03T02:56:51.788Z,101131.44
2022-08-03T02:59:17.943Z,101136.97
2022-08-03T03:01:43.912Z,101143.34
2022-08-03T03:04:10.194Z,101148.91
2022-08-03T03:06:39.360Z,101136.97
2022-08-03T03:09:05.984Z,101146.13
2022-08-03T03:11:31.742Z,101136.16
2022-08-03T03:13:57.672Z,101144.19
2022-08-03T03:16:25.276Z,101142.53
2022-08-03T03:18:51.391Z,101139.75
2022-08-03T03:21:18.117Z,101138.94
2022-08-03T03:23:44.271Z,101146.13
2022-08-03T03:26:12.712Z,101141.72
2022-08-03T03:28:38.600Z,101134.22
2022-08-03T03:31:05.487Z,101139.75
2022-08-03T03:33:32.546Z,101145.31
2022-08-03T03:35:58.439Z,101141.72
2022-08-03T03:38:24.160Z,101139.75
2022-08-03T03:40:49.850Z,101144.50
2022-08-03T03:43:17.611Z,101145.31
2022-08-03T03:45:43.583Z,101136.16
2022-08-03T03:48:09.492Z,101144.50
2022-08-03T03:50:36.719Z,101138.94
2022-08-03T03:53:03.550Z,101147.25
2022-08-03T03:55:29.678Z,101143.34
2022-08-03T03:57:55.763Z,101145.31
2022-08-03T04:00:21.521Z,101142.53
2022-08-03T04:02:47.312Z,101148.09
2022-08-03T04:05:33.464Z,101147.25
2022-08-03T04:08:22.524Z,101145.31
2022-08-03T04:10:59.030Z,101143.63
2022-08-03T04:13:28.811Z,101156.41
2022-08-03T04:15:55.358Z,101142.81
2022-08-03T04:18:21.735Z,101145.31
2022-08-03T04:20:48.103Z,101158.38
2022-08-03T04:23:15.994Z,101150.03
2022-08-03T04:25:42.825Z,101154.75
2022-08-03T04:28:31.114Z,101152.81
2022-08-03T04:30:56.023Z,101147.25
2022-08-03T04:33:24.058Z,101152.81
2022-08-03T04:36:01.861Z,101150.88
2022-08-03T04:38:30.748Z,101157.25
2022-08-03T04:40:56.610Z,101148.38
2022-08-03T04:43:23.668Z,101150.03
2022-08-03T04:45:50.196Z,101151.97
2022-08-03T04:48:15.931Z,101160.28
2022-08-03T04:50:41.694Z,101151.97
2022-08-03T04:53:07.655Z,101151.97
2022-08-03T04:55:34.187Z,101163.06
2022-08-03T04:58:00.704Z,101160.28
2022-08-03T05:00:26.432Z,101153.91
2022-08-03T05:02:53.273Z,101163.94
2022-08-03T05:05:19.241Z,101167.81
2022-08-03T05:07:45.102Z,101160.28
2022-08-03T05:10:16.059Z,101174.19
2022-08-03T05:12:43.269Z,101167.81
2022-08-03T05:15:09.388Z,101169.47
2022-08-03T05:17:35.899Z,101174.19
2022-08-03T05:20:03.172Z,101173.34
2022-08-03T05:22:28.813Z,101173.34
2022-08-03T05:24:54.461Z,101170.56
2022-08-03T05:27:20.118Z,101176.69
2022-08-03T05:29:46.743Z,101170.31
2022-08-03T05:32:12.508Z,101170.31
2022-08-03T05:34:38.210Z,101172.78
2022-08-03T05:37:03.863Z,101173.06
2022-08-03T05:39:29.494Z,101168.63
2022-08-03T05:41:55.119Z,101168.34
2022-08-03T05:44:21.245Z,101171.41
2022-08-03T05:46:46.893Z,101166.69
2022-08-03T05:49:12.563Z,101166.69
2022-08-03T05:51:38.256Z,101170.31
2022-08-03T05:54:04.147Z,101173.91
2022-08-03T05:56:29.798Z,101174.19
2022-08-03T05:58:55.416Z,101171.72
2022-08-03T06:01:21.567Z,101171.41
2022-08-03T06:03:47.931Z,101165.03
2022-08-03T06:06:13.790Z,101170.31
2022-08-03T06:08:40.500Z,101165.03
2022-08-03T06:11:06.178Z,101170.31
2022-08-03T06:13:31.941Z,101174.19
2022-08-03T06:15:57.568Z,101174.19
2022-08-03T06:18:24.203Z,101184.19
2022-08-03T06:20:50.558Z,101177.81
2022-08-03T06:23:18.567Z,101176.94
2022-08-03T06:25:44.554Z,101178.63
2022-08-03T06:28:19.116Z,101176.94
2022-08-03T06:30:49.771Z,101184.19
2022-08-03T06:33:15.795Z,101180.59
2022-08-03T06:35:42.483Z,101181.53
2022-08-03T06:38:10.786Z,101180.34
2022-08-03T06:40:39.256Z,101185.00
2022-08-03T06:43:08.513Z,101184.69
2022-08-03T06:45:37.791Z,101188.75
2022-08-03T06:48:05.299Z,101179.06
2022-08-03T06:50:31.754Z,101182.44
2022-08-03T06:52:57.427Z,101185.50
2022-08-03T06:55:23.282Z,101191.56
2022-08-03T06:57:48.923Z,101179.72
2022-08-03T07:00:14.932Z,101188.78
2022-08-03T07:02:40.759Z,101184.97
2022-08-03T07:05:07.484Z,101186.03
2022-08-03T07:07:33.157Z,101191.81
2022-08-03T07:09:58.775Z,101191.34
2022-08-03T07:12:25.550Z,101190.50
2022-08-03T07:14:51.174Z,101190.47
2022-08-03T07:17:17.828Z,101197.34
2022-08-03T07:19:43.710Z,101197.59
2022-08-03T07:22:10.610Z,101205.63
2022-08-03T07:24:36.291Z,101196.47
2022-08-03T07:27:01.966Z,101201.19
2022-08-03T07:29:27.629Z,101204.78
2022-08-03T07:31:53.461Z,101209.22
2022-08-03T07:34:19.125Z,101198.19
2022-08-03T07:36:44.750Z,101195.41
2022-08-03T07:39:15.795Z,101198.19
2022-08-03T07:41:44.248Z,101202.84
2022-08-03T07:44:09.868Z,101200.69
2022-08-03T07:46:35.495Z,101203.50
2022-08-03T07:49:01.153Z,101196.38
2022-08-03T07:51:26.830Z,101199.94
2022-08-03T07:53:52.985Z,101201.66
2022-08-03T07:56:18.810Z,101196.47
2022-08-03T07:58:44.536Z,101198.50
2022-08-03T08:01:10.264Z,101193.00
2022-08-03T08:03:41.965Z,101190.81
2022-08-03T08:06:18.714Z,101193.00
2022-08-03T08:08:44.356Z,101191.66
2022-08-03T08:11:10.053Z,101185.63
2022-08-03T08:13:37.734Z,101185.84
2022-08-03T08:16:04.276Z,101189.09
2022-08-03T08:18:29.969Z,101184.22
2022-08-03T08:20:55.607Z,101193.13
2022-08-03T08:23:41.642Z,101192.59
2022-08-03T08:26:08.654Z,101194.81
2022-08-03T08:28:34.278Z,101193.44
2022-08-03T08:31:00.844Z,101189.00
2022-08-03T08:33:37.284Z,101188.19
2022-08-03T08:36:12.014Z,101187.38
2022-08-03T08:41:09.094Z,101185.78
2022-08-03T08:43:34.767Z,101182.19
2022-08-03T08:46:00.604Z,101181.13
2022-08-03T08:50:55.166Z,101184.22
2022-08-03T08:53:26.777Z,101192.59
2022-08-03T08:55:58.989Z,101181.13
2022-08-03T08:58:28.624Z,101181.69
2022-08-03T09:00:54.275Z,101182.19
2022-08-03T09:05:56.643Z,101174.00
2022-08-03T09:08:22.482Z,101176.78
2022-08-03T09:10:48.149Z,101179.56
2022-08-03T09:13:13.790Z,101181.50
2022-08-03T09:18:05.253Z,101182.81
2022-08-03T09:20:32.883Z,101189.75
2022-08-03T09:23:01.051Z,101185.63
2022-08-03T09:25:34.442Z,101183.88
2022-08-03T09:28:07.738Z,101191.00
2022-08-03T09:30:35.203Z,101184.84
2022-08-03T09:33:02.430Z,101175.47
2022-08-03T09:35:51.805Z,101181.28
2022-08-03T09:38:17.489Z,101185.28
2022-08-03T09:40:44.321Z,101185.59
2022-08-03T09:43:10.596Z,101184.69
2022-08-03T09:45:38.094Z,101179.97
2022-08-03T09:48:24.407Z,101177.25
2022-08-03T09:53:58.565Z,101176.28
2022-08-03T09:56:40.773Z,101171.56
2022-08-03T09:59:06.450Z,101172.69
2022-08-03T10:01:34.189Z,101176.34
2022-08-03T10:04:04.220Z,101180.72
2022-08-03T10:06:30.677Z,101178.16
2022-08-03T10:09:16.219Z,101171.47
2022-08-03T10:11:42.737Z,101173.97
2022-08-03T10:14:10.617Z,101161.75
2022-08-03T10:16:38.437Z,101160.59
2022-08-03T10:19:05.519Z,101163.06
2022-08-03T10:21:35.140Z,101161.16
2022-08-03T10:24:03.665Z,101160.28
2022-08-03T10:26:31.890Z,101153.91
2022-08-03T10:28:57.633Z,101154.75
2022-08-03T10:31:23.710Z,101152.28
2022-08-03T10:33:53.035Z,101144.78
2022-08-03T10:36:23.157Z,101145.31
2022-08-03T10:38:53.775Z,101140.84
2022-08-03T10:41:20.598Z,101133.16
2022-08-03T10:43:56.113Z,101147.03
2022-08-03T10:46:21.960Z,101138.47
2022-08-03T10:48:49.734Z,101132.59
2022-08-03T10:51:15.585Z,101127.69
2022-08-03T10:53:44.185Z,101134.34
2022-08-03T10:59:12.234Z,101128.88
2022-08-03T11:01:59.845Z,101124.94
2022-08-03T11:04:28.401Z,101124.66
2022-08-03T11:09:54.307Z,101114.31
2022-08-03T11:12:28.337Z,101121.50
2022-08-03T11:15:00.220Z,101107.53
2022-08-03T11:17:25.868Z,101111.19
2022-08-03T11:19:56.510Z,101115.28
2022-08-03T11:22:24.245Z,101107.78
2022-08-03T11:27:32.757Z,101105.63
2022-08-03T11:30:09.095Z,101107.25
2022-08-03T11:35:19.914Z,101092.84
2022-08-03T11:38:05.273Z,101103.94
2022-08-03T11:40:48.163Z,101106.44
2022-08-03T11:46:28.508Z,101114.53
2022-08-03T11:49:06.523Z,101106.44
2022-08-03T11:51:36.992Z,101101.72
2022-08-03T11:54:04.878Z,101096.44
2022-08-03T11:56:47.996Z,101091.44
2022-08-03T11:59:20.750Z,101093.88
2022-08-03T12:01:47.623Z,101095.53
2022-08-03T12:04:15.333Z,101096.38
2022-08-03T12:06:56.129Z,101093.59
2022-08-03T12:09:21.844Z,101100.25
2022-08-03T12:11:51.084Z,101094.44
2022-08-03T12:14:50.625Z,101091.94
2022-08-03T12:17:13.462Z,101093.88
2022-08-03T12:19:42.616Z,101099.03
2022-08-03T12:22:08.255Z,101096.47
2022-08-03T12:24:41.876Z,101093.38
2022-08-03T12:27:07.503Z,101085.06
2022-08-03T12:29:33.133Z,101080.63
2022-08-03T12:31:58.781Z,101088.72
2022-08-03T12:34:47.185Z,101073.22
2022-08-03T12:37:22.695Z,101084.31
2022-08-03T12:40:01.607Z,101085.41
2022-08-03T12:42:31.129Z,101078.19
2022-08-03T12:44:56.756Z,101086.53
2022-08-03T12:47:22.398Z,101081.78
2022-08-03T12:49:49.938Z,101081.53
2022-08-03T12:52:17.642Z,101084.00
2022-08-03T12:54:53.786Z,101093.16
2022-08-03T12:57:19.590Z,101090.38
2022-08-03T12:59:53.143Z,101088.97
2022-08-03T13:02:23.713Z,101072.63
2022-08-03T13:04:51.057Z,101085.38
2022-08-03T13:07:18.110Z,101072.31
2022-08-03T13:12:24.046Z,101075.06
2022-08-03T13:14:53.832Z,101077.03
2022-08-03T13:17:19.801Z,101074.25
2022-08-03T13:19:46.109Z,101066.75
2022-08-03T13:22:21.912Z,101071.97
2022-08-03T13:24:49.410Z,101072.81
2022-08-03T13:28:01.431Z,101066.97
2022-08-03T13:30:00.974Z,101062.53
2022-08-03T13:32:26.647Z,101073.34
2022-08-03T13:34:52.301Z,101069.75
2022-08-03T13:37:17.938Z,101074.47
2022-08-03T13:39:48.112Z,101064.19
2022-08-03T13:42:25.615Z,101070.84
2022-08-03T13:44:51.251Z,101067.25
2022-08-03T13:47:17.166Z,101058.63
2022-08-03T13:49:42.932Z,101057.81
2022-08-03T13:52:25.193Z,101050.59
2022-08-03T13:54:50.816Z,101049.47
2022-08-03T13:58:06.363Z,101045.56
2022-08-03T14:00:03.538Z,101039.19
2022-08-03T14:02:29.225Z,101040.84
2022-08-03T14:04:54.886Z,101028.91
2022-08-03T14:07:20.909Z,101035.59
2022-08-03T14:09:46.867Z,101036.41
2022-08-03T14:12:12.505Z,101033.63
2022-08-03T14:14:38.137Z,101034.47
2022-08-03T14:17:03.803Z,101028.91
2022-08-03T14:19:29.873Z,101018.94
2022-08-03T14:22:06.184Z,101017.47
2022-08-03T14:24:32.358Z,101026.94
2022-08-03T14:27:05.764Z,101024.16
2022-08-03T14:29:34.419Z,101013.06
2022-08-03T14:32:09.983Z,101022.53
2022-08-03T14:34:38.489Z,101017.78
2022-08-03T14:37:04.138Z,101012.25
2022-08-03T14:39:58.333Z,101008.31
2022-08-03T14:42:15.830Z,101009.16
2022-08-03T14:44:41.930Z,101010.28
2022-08-03T14:47:07.571Z,101012.25
2022-08-03T14:50:34.299Z,101009.97
2022-08-03T14:52:18.815Z,101005.56
2022-08-03T14:54:44.882Z,101005.56
2022-08-03T14:57:10.532Z,101001.94
2022-08-03T14:59:55.560Z,100999.19
2022-08-03T15:02:23.805Z,100995.56
2022-08-03T15:04:49.884Z,100997.53
2022-08-03T15:07:15.502Z,100998.34
2022-08-03T15:09:41.168Z,100990.03
2022-08-03T15:12:06.936Z,100990.03
2022-08-03T15:14:34.962Z,100990.03
2022-08-03T15:17:03.681Z,100987.25
2022-08-03T15:20:03.086Z,100985.28
2022-08-03T15:22:16.270Z,100987.25
2022-08-03T15:24:46.191Z,100983.66
2022-08-03T15:27:11.833Z,100980.56
2022-08-03T15:30:05.795Z,100973.03
2022-08-03T15:32:23.071Z,100970.56
2022-08-03T15:34:50.235Z,100973.03
2022-08-03T15:37:16.807Z,100975.00
2022-08-03T15:39:59.862Z,100978.91
2022-08-03T15:42:27.509Z,100980.22
2022-08-03T15:44:53.157Z,100974.19
2022-08-03T15:47:20.415Z,100966.97
2022-08-03T15:49:46.121Z,100973.03
2022-08-03T15:52:11.738Z,100963.06
2022-08-03T15:54:37.367Z,100974.19
2022-08-03T15:57:03.094Z,100967.50
2022-08-03T15:59:28.722Z,100965.84
2022-08-03T16:01:56.267Z,100965.84
2022-08-03T16:04:22.182Z,100965.53
2022-08-03T16:06:48.007Z,100961.94
2022-08-03T16:09:24.392Z,100965.03
2022-08-03T16:11:59.275Z,100957.50
2022-08-03T16:14:32.049Z,100966.34
2022-08-03T16:17:01.374Z,100958.34
2022-08-03T16:19:27.273Z,100956.38
2022-08-03T16:21:52.907Z,100954.72
2022-08-03T16:24:25.214Z,100951.97
2022-08-03T16:26:53.379Z,100947.22
2022-08-03T16:29:23.202Z,100948.88
2022-08-03T16:31:51.299Z,100947.22
2022-08-03T16:34:17.040Z,100944.44
2022-08-03T16:36:44.641Z,100950.81
2022-08-03T16:39:10.317Z,100942.50
2022-08-03T16:41:53.923Z,100946.09
2022-08-03T16:44:21.777Z,100945.25
2022-08-03T16:46:47.391Z,100939.72
2022-08-03T16:49:13.365Z,100940.53
2022-08-03T16:51:59.023Z,100941.34
2022-08-03T16:54:24.761Z,100940.53
2022-08-03T16:56:53.718Z,100936.94
2022-08-03T16:59:19.344Z,100937.75
2022-08-03T17:02:07.990Z,100933.03
2022-08-03T17:04:35.705Z,100940.53
2022-08-03T17:07:06.841Z,100946.91
2022-08-03T17:09:38.212Z,100932.19
2022-08-03T17:12:04.801Z,100933.34
2022-08-03T17:14:32.835Z,100936.94
2022-08-03T17:17:00.597Z,100934.16
2022-08-03T17:19:30.372Z,100939.44
2022-08-03T17:22:04.949Z,100934.97
2022-08-03T17:24:41.044Z,100940.53
2022-08-03T17:27:09.322Z,100935.78
2022-08-03T17:30:07.764Z,100935.78
2022-08-03T17:32:36.304Z,100940.53
2022-08-03T17:35:08.674Z,100937.75
2022-08-03T17:37:58.217Z,100932.19
2022-08-03T17:40:21.851Z,100933.03
2022-08-03T17:42:50.793Z,100935.78
2022-08-03T17:45:16.858Z,100935.78
2022-08-03T17:47:44.458Z,100930.25
2022-08-03T17:50:24.148Z,100933.03
2022-08-03T17:53:07.655Z,100934.16
2022-08-03T17:56:04.578Z,100943.31
2022-08-03T17:58:53.938Z,100948.88
2022-08-03T18:02:03.696Z,100941.34
2022-08-03T18:04:41.581Z,100941.34
2022-08-03T18:07:11.807Z,100943.31
2022-08-03T18:10:06.386Z,100946.91
2022-08-03T18:12:40.133Z,100944.13
2022-08-03T18:15:09.246Z,100948.56
2022-08-03T18:17:58.315Z,100944.97
2022-08-03T18:23:24.970Z,100941.34
2022-08-03T18:26:01.819Z,100946.09
2022-08-03T18:28:28.786Z,100945.81
2022-08-03T18:30:55.334Z,100945.81
2022-08-03T18:34:19.921Z,100944.13
2022-08-03T18:36:10.063Z,100933.88
2022-08-03T18:38:38.897Z,100940.53
2022-08-03T18:41:12.920Z,100940.53
2022-08-03T18:43:46.285Z,100941.34
2022-08-03T18:46:32.725Z,100947.75
2022-08-03T18:49:11.994Z,100941.34
2022-08-03T18:51:43.313Z,100935.78
2022-08-03T18:54:59.110Z,100943.31
2022-08-03T18:57:30.441Z,100944.97
2022-08-03T19:00:07.125Z,100944.13
2022-08-03T19:02:48.954Z,100942.19
2022-08-03T19:05:56.468Z,100939.44
2022-08-03T19:08:17.993Z,100941.34
2022-08-03T19:10:57.662Z,100949.41
2022-08-03T19:13:36.083Z,100935.78
2022-08-03T19:16:03.560Z,100946.91
2022-08-03T19:18:31.283Z,100950.53
2022-08-03T19:20:57.202Z,100950.53
2022-08-03T19:23:24.343Z,100953.31
2022-08-03T19:25:51.225Z,100953.31
2022-08-03T19:28:20.215Z,100959.69
2022-08-03T19:30:56.153Z,100962.47
2022-08-03T19:33:25.550Z,100956.91
2022-08-03T19:35:57.095Z,100961.66
2022-08-03T19:38:27.534Z,100961.66
2022-08-03T19:40:57.958Z,100966.06
2022-08-03T19:43:53.513Z,100964.44
2022-08-03T19:46:21.089Z,100961.66
2022-08-03T19:48:53.623Z,100961.66
2022-08-03T19:51:52.550Z,100955.25
2022-08-03T19:54:09.335Z,100958.88
2022-08-03T19:56:44.145Z,100961.66
2022-08-03T19:59:13.153Z,100956.91
2022-08-03T20:01:50.802Z,100964.44
2022-08-03T20:04:16.967Z,100961.66
2022-08-03T20:06:43.115Z,100956.09
2022-08-03T20:09:11.659Z,100954.13
2022-08-03T20:11:45.071Z,100958.03
2022-08-03T20:14:11.006Z,100953.31
2022-08-03T20:16:41.771Z,100959.69
2022-08-03T20:19:14.251Z,100958.03
2022-08-03T20:21:43.563Z,100953.31
2022-08-03T20:24:23.516Z,100962.47
2022-08-03T20:26:53.596Z,100968.84
2022-08-03T20:29:42.570Z,100968.84
2022-08-03T20:32:08.618Z,100968.03
2022-08-03T20:34:37.408Z,100968.03
2022-08-03T20:37:03.398Z,100969.66
2022-08-03T20:39:29.074Z,100968.03
2022-08-03T20:41:56.796Z,100964.44
2022-08-03T20:44:25.933Z,100969.13
2022-08-03T20:47:00.278Z,100977.19
2022-08-03T20:49:27.212Z,100969.66
2022-08-03T20:51:53.593Z,100963.56
2022-08-03T20:57:09.574Z,100962.47
2022-08-03T20:59:50.000Z,100958.56
2022-08-03T21:02:19.895Z,100956.09
2022-08-03T21:04:56.404Z,100960.50
2022-08-03T21:07:23.340Z,100957.72
2022-08-03T21:09:52.272Z,100960.50
2022-08-03T21:12:26.924Z,100961.31
2022-08-03T21:13:05.926Z,100937.75
2022-08-03T21:13:13.804Z,100960.50
2022-08-03T21:15:03.645Z,100957.72
2022-08-03T21:17:40.648Z,100959.69
2022-08-03T21:20:08.981Z,100954.94
2022-08-03T21:22:36.653Z,100949.41
2022-08-03T21:25:06.433Z,100943.84
2022-08-03T21:27:32.148Z,100950.22
2022-08-03T21:30:01.136Z,100944.66
2022-08-03T21:32:32.530Z,100945.81
2022-08-03T21:34:59.258Z,100949.41
2022-08-03T21:37:26.338Z,100941.06
2022-08-03T21:39:52.887Z,100941.06
2022-08-03T21:42:20.208Z,100943.03
2022-08-03T21:44:45.881Z,100943.84
2022-08-03T21:47:12.489Z,100943.84
2022-08-03T21:50:07.621Z,100939.09
2022-08-03T21:52:25.842Z,100943.03
2022-08-03T21:54:53.358Z,100947.44
2022-08-03T21:57:22.678Z,100948.25
2022-08-03T21:59:54.940Z,100947.44
2022-08-03T22:02:24.339Z,100942.72
2022-08-03T22:04:56.186Z,100943.84
2022-08-03T22:07:24.309Z,100946.31
2022-08-03T22:09:51.737Z,100951.03
2022-08-03T22:12:22.018Z,100945.47
2022-08-03T22:14:49.246Z,100944.66
2022-08-03T22:17:53.987Z,100942.72
2022-08-03T22:20:13.693Z,100939.09
2022-08-03T22:22:39.739Z,100941.06
2022-08-03T22:25:09.316Z,100936.66
2022-08-03T22:27:39.280Z,100947.44
2022-08-03T22:30:12.316Z,100947.44
2022-08-03T22:32:38.927Z,100948.25
2022-08-03T22:35:06.257Z,100944.66
2022-08-03T22:37:32.573Z,100953.00
2022-08-03T22:39:59.780Z,100951.34
2022-08-03T22:42:25.600Z,100950.22
2022-08-03T22:44:53.666Z,100953.00
2022-08-03T22:47:22.669Z,100947.44
2022-08-03T22:49:51.181Z,100950.22
2022-08-03T22:52:37.696Z,100948.25
2022-08-03T22:55:05.835Z,100950.22
2022-08-03T22:57:32.587Z,100949.41
2022-08-03T22:59:59.320Z,100948.25
2022-08-03T23:02:25.562Z,100947.44
2022-08-03T23:04:53.596Z,100942.72
2022-08-03T23:07:25.822Z,100942.72
2022-08-03T23:09:51.692Z,100943.84
2022-08-03T23:12:19.226Z,100939.09
2022-08-03T23:14:52.269Z,100947.44
2022-08-03T23:17:18.732Z,100939.09
2022-08-03T23:19:44.652Z,100938.28
2022-08-03T23:22:17.058Z,100936.34
2022-08-03T23:24:56.480Z,100939.94
2022-08-03T23:27:22.669Z,100937.16
2022-08-03T23:29:50.063Z,100939.09
2022-08-03T23:32:19.435Z,100936.34
2022-08-03T23:35:06.887Z,100939.09
2022-08-03T23:37:32.659Z,100932.72
2022-08-03T23:39:58.549Z,100928.81
2022-08-03T23:42:24.700Z,100937.16
2022-08-03T23:44:53.691Z,100929.94
2022-08-03T23:47:19.383Z,100929.94
2022-08-03T23:49:45.047Z,100928.81
2022-08-03T23:52:19.353Z,100928.81
2022-08-03T23:55:01.775Z,100930.78
2022-08-03T23:57:37.033Z,100926.84
